Time;durP1;ratioP1;P1;durP2;ratioP2;P2;SDS_P1;SDS_P2;PMS_P1;PMS_P2;Temp;Humidity;BMP_temperature;BMP_pressure;BME280_temperature;BME280_humidity;BME280_pressure;Samples;Min_cycle;Max_cycle;Signal;HPM_P1;HPM_P2
2022/05/25 00:01:50;;;;;;;3.40;1.77;;;12.20;99.90;;;;;;5020731;28;20092;-65
2022/05/25 00:04:17;;;;;;;4.13;1.83;;;12.20;99.90;;;;;;5014361;28;20034;-65
2022/05/25 00:06:45;;;;;;;3.35;1.58;;;12.20;99.90;;;;;;4992858;28;20046;-65
2022/05/25 00:09:12;;;;;;;3.30;1.77;;;12.20;99.90;;;;;;4989713;28;20046;-65
2022/05/25 00:11:39;;;;;;;5.35;1.80;;;12.20;99.90;;;;;;5018478;28;20046;-66
2022/05/25 00:14:06;;;;;;;3.25;1.80;;;12.10;99.90;;;;;;5015739;28;20034;-65
2022/05/25 00:16:33;;;;;;;3.50;1.80;;;12.20;99.90;;;;;;5019628;28;20057;-65
2022/05/25 00:21:44;;;;;;;4.85;2.60;;;12.20;99.90;;;;;;5019177;28;20053;-65
2022/05/25 00:24:11;;;;;;;4.35;2.92;;;12.10;99.90;;;;;;5016953;28;20045;-66
2022/05/25 00:26:38;;;;;;;6.20;3.03;;;12.20;99.90;;;;;;5022617;28;20037;-65
2022/05/25 00:29:05;;;;;;;5.55;3.05;;;12.20;99.90;;;;;;5001567;28;20057;-65
2022/05/25 00:31:32;;;;;;;8.25;3.45;;;12.20;99.90;;;;;;5011236;28;20057;-65
2022/05/25 00:33:59;;;;;;;6.03;3.95;;;12.10;99.90;;;;;;5012064;28;20052;-65
2022/05/25 00:36:26;;;;;;;6.63;2.95;;;12.10;99.90;;;;;;5018234;28;20087;-65
2022/05/25 00:38:53;;;;;;;7.05;3.05;;;12.20;99.90;;;;;;5020827;28;20454;-65
2022/05/25 00:41:30;;;;;;;6.95;2.80;;;12.10;99.90;;;;;;5025762;28;20081;-65
2022/05/25 00:43:57;;;;;;;7.72;3.00;;;12.20;99.90;;;;;;5025441;28;20479;-65
2022/05/25 00:46:26;;;;;;;2.97;2.50;;;12.20;99.90;;;;;;5026953;28;20046;-65
2022/05/25 00:49:00;;;;;;;4.70;2.90;;;12.20;99.90;;;;;;5031123;28;20124;-65
2022/05/25 00:51:41;;;;;;;4.78;2.70;;;12.20;99.90;;;;;;5024945;28;20046;-65
2022/05/25 00:54:17;;;;;;;3.25;2.70;;;12.20;99.90;;;;;;5013134;28;20054;-65
2022/05/25 00:56:45;;;;;;;2.97;2.38;;;12.20;99.90;;;;;;5011270;28;20101;-65
2022/05/25 00:59:18;;;;;;;3.35;2.05;;;12.20;99.90;;;;;;5011615;28;20053;-66
2022/05/25 01:01:45;;;;;;;3.03;1.98;;;12.20;99.90;;;;;;5018719;28;20164;-65
2022/05/25 01:04:13;;;;;;;4.90;1.77;;;12.20;99.90;;;;;;5007537;28;20045;-65
2022/05/25 01:06:58;;;;;;;7.18;1.80;;;12.20;99.90;;;;;;5031217;28;20045;-65
2022/05/25 01:09:51;;;;;;;2.00;1.45;;;12.30;99.90;;;;;;5031134;28;20045;-65
2022/05/25 01:12:52;;;;;;;4.18;2.25;;;12.30;99.90;;;;;;5003997;28;20057;-66
2022/05/25 01:15:38;;;;;;;70.40;7.13;;;12.30;99.90;;;;;;4991906;28;20085;-65
2022/05/25 01:18:05;;;;;;;53.42;4.68;;;12.20;99.90;;;;;;4991761;28;20046;-65
2022/05/25 01:20:55;;;;;;;172.38;10.82;;;12.20;99.90;;;;;;5017322;28;20042;-65
2022/05/25 01:24:10;;;;;;;12.35;3.60;;;12.20;99.90;;;;;;4974184;28;20050;-65
2022/05/25 01:27:17;;;;;;;4.45;3.05;;;12.20;99.90;;;;;;4991641;28;20050;-65
2022/05/25 01:29:55;;;;;;;6.45;2.60;;;12.20;99.90;;;;;;5014716;28;20041;-65
2022/05/25 01:32:48;;;;;;;3.63;2.42;;;12.30;99.90;;;;;;5026283;28;20525;-65
2022/05/25 01:35:21;;;;;;;3.50;2.25;;;12.30;99.90;;;;;;5031040;28;20418;-65
2022/05/25 01:37:58;;;;;;;3.95;2.80;;;12.30;99.90;;;;;;5026382;28;20048;-65
2022/05/25 01:40:46;;;;;;;5.80;3.22;;;12.30;99.90;;;;;;5022603;28;20409;-65
2022/05/25 01:43:45;;;;;;;7.88;4.22;;;12.30;99.90;;;;;;5033512;28;20053;-65
2022/05/25 01:46:25;;;;;;;7.80;3.87;;;12.30;99.90;;;;;;5015047;28;20581;-65
2022/05/25 01:48:54;;;;;;;4.97;3.65;;;12.30;99.90;;;;;;5026020;28;20050;-65
2022/05/25 01:51:39;;;;;;;5.32;3.72;;;12.30;99.90;;;;;;5034315;28;20512;-65
2022/05/25 01:54:09;;;;;;;5.35;3.70;;;12.30;99.90;;;;;;5035034;28;20056;-65
2022/05/25 01:56:40;;;;;;;7.75;4.10;;;12.30;99.90;;;;;;5030595;28;20052;-65
2022/05/25 01:59:10;;;;;;;10.07;4.18;;;12.30;99.90;;;;;;5028027;28;20049;-65
2022/05/25 02:01:48;;;;;;;8.52;5.38;;;12.30;99.90;;;;;;5034392;28;20042;-65
2022/05/25 02:04:21;;;;;;;9.45;5.38;;;12.30;99.90;;;;;;5030695;28;20117;-65
2022/05/25 02:06:51;;;;;;;10.55;5.93;;;12.30;99.90;;;;;;5025029;28;20038;-65
2022/05/25 02:09:42;;;;;;;11.23;5.30;;;12.40;99.90;;;;;;5034638;28;20448;-64
2022/05/25 02:12:43;;;;;;;10.15;5.50;;;12.30;99.90;;;;;;5034214;28;20049;-65
2022/05/25 02:15:22;;;;;;;7.20;5.18;;;12.30;99.90;;;;;;5026116;28;20037;-65
2022/05/25 02:18:14;;;;;;;8.10;5.97;;;12.30;99.90;;;;;;5026198;28;20049;-65
2022/05/25 02:20:48;;;;;;;11.48;5.72;;;12.30;99.90;;;;;;5034006;28;20572;-65
2022/05/25 02:23:28;;;;;;;14.32;5.50;;;12.30;99.90;;;;;;5025712;28;20399;-65
2022/05/25 02:26:19;;;;;;;13.30;5.82;;;12.30;99.90;;;;;;5034083;28;20138;-65
2022/05/25 02:29:13;;;;;;;10.73;6.55;;;12.30;99.90;;;;;;5034078;28;20495;-65
2022/05/25 02:31:48;;;;;;;14.52;6.93;;;12.30;99.90;;;;;;5020868;28;20050;-65
2022/05/25 02:34:17;;;;;;;12.93;6.60;;;12.30;99.90;;;;;;5034318;28;20053;-65
2022/05/25 02:36:46;;;;;;;15.18;7.47;;;12.20;99.90;;;;;;5033860;28;20108;-65
2022/05/25 02:39:14;;;;;;;14.88;7.13;;;12.20;99.90;;;;;;5011383;28;20053;-65
2022/05/25 02:41:50;;;;;;;14.20;8.38;;;12.30;99.90;;;;;;5022918;28;20045;-65
2022/05/25 02:44:17;;;;;;;24.90;8.90;;;12.20;99.90;;;;;;5034080;28;20056;-65
2022/05/25 02:46:44;;;;;;;;;;;12.30;99.90;;;;;;5030721;28;20038;-65
2022/05/25 02:49:11;;;;;;;10.93;7.30;;;12.30;99.90;;;;;;5007664;28;20370;-65
2022/05/25 02:51:39;;;;;;;13.35;7.03;;;12.30;99.90;;;;;;5033460;28;20041;-65
2022/05/25 02:54:06;;;;;;;13.95;7.28;;;12.30;99.90;;;;;;5033489;28;20056;-65
2022/05/25 02:56:33;;;;;;;20.88;8.48;;;12.30;99.90;;;;;;5024803;28;20108;-66
2022/05/25 02:59:00;;;;;;;;;;;12.30;99.90;;;;;;5026304;28;20056;-65
2022/05/25 03:01:28;;;;;;;10.73;6.15;;;12.30;99.90;;;;;;5033227;28;19932;-65
2022/05/25 03:03:55;;;;;;;14.60;7.20;;;12.30;99.90;;;;;;5030331;28;20033;-65
2022/05/25 03:06:22;;;;;;;24.95;8.95;;;12.30;99.90;;;;;;5024950;28;20052;-65
2022/05/25 03:08:49;;;;;;;54.33;10.52;;;12.30;99.90;;;;;;5033678;28;20049;-65
2022/05/25 03:11:15;;;;;;;184.45;16.02;;;12.20;99.90;;;;;;5033209;28;20057;-65
2022/05/25 03:13:47;;;;;;;42.42;9.10;;;12.20;99.90;;;;;;5030059;28;20609;-65
2022/05/25 03:16:15;;;;;;;44.58;10.40;;;12.20;99.90;;;;;;5025012;28;20049;-65
2022/05/25 03:18:43;;;;;;;24.88;8.18;;;12.20;99.90;;;;;;5033226;28;20564;-65
2022/05/25 03:21:10;;;;;;;49.15;11.35;;;12.20;99.90;;;;;;5015398;28;20041;-64
2022/05/25 03:23:37;;;;;;;24.42;10.23;;;12.20;99.90;;;;;;5023757;28;20041;-65
2022/05/25 03:26:04;;;;;;;28.63;11.70;;;12.20;99.90;;;;;;5025839;28;20048;-65
2022/05/25 03:28:31;;;;;;;22.50;11.85;;;12.20;99.90;;;;;;5033312;28;20045;-65
2022/05/25 03:30:58;;;;;;;27.42;12.77;;;12.50;99.90;;;;;;5028954;28;20049;-65
2022/05/25 03:33:25;;;;;;;23.05;11.30;;;12.20;99.90;;;;;;5025761;28;20045;-65
2022/05/25 03:35:51;;;;;;;19.85;11.73;;;12.20;99.90;;;;;;5032124;28;20053;-65
2022/05/25 03:38:18;;;;;;;25.40;11.60;;;12.30;99.90;;;;;;5032916;28;20041;-65
2022/05/25 03:40:46;;;;;;;87.07;17.48;;;12.30;99.90;;;;;;5022462;28;20060;-65
2022/05/25 03:43:14;;;;;;;;;;;12.30;99.90;;;;;;5033240;28;20048;-65
2022/05/25 03:45:41;;;;;;;;;;;12.20;99.90;;;;;;5033339;28;20356;-65
2022/05/25 03:48:08;;;;;;;24.77;12.55;;;12.30;99.90;;;;;;5027333;28;19925;-65
2022/05/25 03:50:38;;;;;;;24.33;11.93;;;12.20;99.90;;;;;;5024073;28;20045;-65
2022/05/25 03:53:07;;;;;;;24.73;11.82;;;12.20;99.90;;;;;;5032594;28;20054;-65
2022/05/25 03:55:34;;;;;;;18.73;10.77;;;12.20;99.90;;;;;;5023732;28;20498;-65
2022/05/25 03:58:03;;;;;;;18.35;10.35;;;12.20;99.90;;;;;;5024240;28;20045;-65
2022/05/25 04:00:31;;;;;;;42.22;13.70;;;12.30;99.90;;;;;;5032170;28;20052;-65
2022/05/25 04:02:59;;;;;;;23.80;11.15;;;12.30;99.90;;;;;;5032430;28;20398;-66
2022/05/25 04:05:27;;;;;;;21.10;10.18;;;12.30;99.90;;;;;;5020361;28;20050;-65
2022/05/25 04:07:58;;;;;;;;;;;12.30;99.90;;;;;;5032302;28;20044;-66
2022/05/25 04:10:30;;;;;;;15.25;9.15;;;12.30;99.90;;;;;;5032117;28;20404;-66
2022/05/25 04:12:56;;;;;;;;;;;12.40;99.90;;;;;;5028323;28;20053;-66
2022/05/25 04:15:26;;;;;;;20.35;9.88;;;12.30;99.90;;;;;;5023665;23;19920;-63
2022/05/25 04:17:54;;;;;;;19.45;9.52;;;12.40;99.90;;;;;;5007431;28;20030;-63
2022/05/25 04:20:22;;;;;;;19.30;9.50;;;12.40;99.90;;;;;;5011514;28;20052;-63
2022/05/25 04:22:50;;;;;;;13.88;8.05;;;12.40;99.90;;;;;;5012238;28;20038;-63
2022/05/25 04:25:20;;;;;;;14.73;8.32;;;12.40;99.90;;;;;;5008590;28;20049;-63
2022/05/25 04:27:48;;;;;;;19.63;8.95;;;12.40;99.90;;;;;;5000903;28;20034;-63
2022/05/25 04:30:18;;;;;;;16.73;9.32;;;12.40;99.90;;;;;;5002143;28;20061;-63
2022/05/25 04:32:45;;;;;;;43.45;10.93;;;12.40;99.90;;;;;;5002177;28;20026;-63
2022/05/25 04:35:14;;;;;;;25.20;10.90;;;12.40;99.90;;;;;;5000852;28;20060;-63
2022/05/25 04:37:52;;;;;;;18.58;8.90;;;12.40;99.90;;;;;;4992164;28;20054;-63
2022/05/25 04:40:25;;;;;;;13.38;8.10;;;12.40;99.90;;;;;;4972713;28;20051;-63
2022/05/25 04:42:53;;;;;;;19.88;8.80;;;12.40;99.90;;;;;;4990108;28;20039;-63
2022/05/25 04:45:21;;;;;;;17.58;9.10;;;12.30;99.90;;;;;;4991895;28;20598;-62
2022/05/25 04:47:48;;;;;;;25.98;9.25;;;12.30;99.90;;;;;;5008823;28;20046;-62
2022/05/25 04:50:18;;;;;;;32.78;10.57;;;12.30;99.90;;;;;;4998616;28;20049;-63
2022/05/25 04:52:45;;;;;;;17.35;9.15;;;12.20;99.90;;;;;;4992933;28;20041;-62
2022/05/25 04:58:00;;;;;;;20.17;10.10;;;12.20;99.90;;;;;;4999638;28;20054;-62
2022/05/25 05:00:27;;;;;;;27.02;9.93;;;12.20;99.90;;;;;;4999439;28;20038;-62
2022/05/25 05:02:54;;;;;;;;;;;12.30;99.90;;;;;;5001974;28;20062;-63
2022/05/25 05:05:21;;;;;;;14.48;8.18;;;12.20;99.90;;;;;;5000851;28;19929;-62
2022/05/25 05:07:48;;;;;;;12.63;6.60;;;12.20;99.90;;;;;;4999137;28;20049;-62
2022/05/25 05:10:15;;;;;;;10.00;4.75;;;12.20;99.90;;;;;;4991320;28;20094;-62
2022/05/25 05:12:42;;;;;;;6.97;3.85;;;12.20;99.90;;;;;;4992072;28;20046;-62
2022/05/25 05:15:10;;;;;;;8.63;3.25;;;12.10;99.90;;;;;;4991978;28;20046;-62
2022/05/25 05:17:36;;;;;;;5.18;2.60;;;12.00;99.90;;;;;;4988896;28;20064;-62
2022/05/25 05:20:32;;;;;;;11.23;2.88;;;11.90;99.90;;;;;;4970880;28;20515;-62
2022/05/25 05:22:59;;;;;;;7.88;3.28;;;11.80;99.90;;;;;;4991646;28;20043;-62
2022/05/25 05:25:26;;;;;;;3.95;2.85;;;11.70;99.90;;;;;;4991863;28;20049;-62
2022/05/25 05:27:53;;;;;;;6.10;2.92;;;11.60;99.90;;;;;;4989369;28;20042;-62
2022/05/25 05:30:22;;;;;;;3.22;2.13;;;11.60;99.90;;;;;;4992178;28;20050;-62
2022/05/25 05:32:55;;;;;;;3.53;2.15;;;11.50;99.90;;;;;;4987980;28;20213;-62
2022/05/25 05:35:21;;;;;;;9.27;1.80;;;11.50;99.90;;;;;;4999072;28;20054;-63
2022/05/25 05:37:52;;;;;;;3.83;2.63;;;11.40;99.90;;;;;;4999145;28;20038;-62
2022/05/25 05:40:19;;;;;;;6.78;2.38;;;11.30;99.90;;;;;;5000970;28;20527;-62
2022/05/25 05:42:49;;;;;;;6.18;2.53;;;11.30;99.90;;;;;;4997929;28;20418;-62
2022/05/25 05:45:23;;;;;;;4.38;2.85;;;11.30;99.90;;;;;;4998470;28;20445;-62
2022/05/25 05:47:57;;;;;;;5.10;2.72;;;11.40;99.90;;;;;;5000247;28;20038;-62
2022/05/25 05:50:25;;;;;;;4.82;2.33;;;11.30;99.90;;;;;;4997169;28;20046;-62
2022/05/25 05:52:52;;;;;;;4.15;2.70;;;11.30;99.90;;;;;;5000500;28;20392;-62
2022/05/25 05:55:19;;;;;;;;;;;11.30;99.90;;;;;;4996307;28;20079;-62
2022/05/25 05:57:46;;;;;;;6.70;2.70;;;11.30;99.90;;;;;;4979284;28;19929;-62
2022/05/25 06:00:15;;;;;;;5.47;2.42;;;11.20;99.90;;;;;;4984204;28;20065;-62
2022/05/25 06:02:43;;;;;;;5.15;2.50;;;11.20;99.90;;;;;;4972085;28;20047;-62
2022/05/25 06:05:11;;;;;;;4.97;2.22;;;11.20;99.90;;;;;;4971807;28;20047;-62
2022/05/25 06:07:38;;;;;;;2.67;1.77;;;11.20;99.90;;;;;;4973287;28;20451;-62
2022/05/25 06:10:06;;;;;;;3.80;2.67;;;11.20;99.90;;;;;;4990329;28;20097;-62
2022/05/25 06:12:33;;;;;;;8.20;3.35;;;11.20;99.90;;;;;;4971955;28;20057;-62
2022/05/25 06:19:25;;;;;;;5.03;2.78;;;11.20;99.90;;;;;;4971925;28;20392;-62
2022/05/25 06:20:37;;;;;;;6.40;2.58;;;11.30;99.90;;;;;;4991267;28;20435;-63
2022/05/25 06:23:04;;;;;;;5.00;2.55;;;11.40;99.90;;;;;;4990356;28;20102;-62
2022/05/25 06:25:31;;;;;;;5.78;1.75;;;11.40;99.90;;;;;;4987698;28;20054;-63
2022/05/25 06:27:57;;;;;;;2.97;2.10;;;11.50;99.90;;;;;;4972264;28;20444;-63
2022/05/25 06:30:24;;;;;;;5.32;2.08;;;11.50;99.90;;;;;;4975022;28;20039;-63
2022/05/25 06:32:51;;;;;;;11.40;2.58;;;11.60;99.90;;;;;;4977885;28;20098;-63
2022/05/25 06:35:18;;;;;;;6.47;2.53;;;11.70;99.90;;;;;;4994730;28;20050;-63
2022/05/25 06:37:45;;;;;;;8.25;3.13;;;11.70;99.90;;;;;;4994862;28;20065;-63
2022/05/25 06:40:12;;;;;;;9.80;2.97;;;11.80;99.90;;;;;;4988334;28;20077;-63
2022/05/25 06:42:41;;;;;;;6.93;3.05;;;11.90;99.90;;;;;;4975848;28;20039;-63
2022/05/25 06:45:10;;;;;;;6.40;2.65;;;11.90;99.90;;;;;;4992577;28;20093;-63
2022/05/25 06:47:37;;;;;;;3.22;2.60;;;11.90;99.90;;;;;;4994224;28;20074;-63
2022/05/25 06:50:05;;;;;;;;;;;11.90;99.90;;;;;;4994636;28;20066;-63
2022/05/25 06:52:31;;;;;;;4.43;2.33;;;11.90;99.90;;;;;;4990701;28;19929;-63
2022/05/25 06:54:58;;;;;;;6.38;2.03;;;12.00;99.90;;;;;;4986414;28;20047;-63
2022/05/25 06:57:25;;;;;;;6.72;2.13;;;12.00;99.90;;;;;;4994319;28;20053;-63
2022/05/25 06:59:53;;;;;;;3.42;1.75;;;12.00;99.90;;;;;;4993858;28;20522;-63
2022/05/25 07:02:20;;;;;;;3.33;2.20;;;12.00;99.90;;;;;;4990071;28;20068;-63
2022/05/25 07:04:47;;;;;;;3.10;2.08;;;12.00;99.90;;;;;;4994016;28;20038;-63
2022/05/25 07:07:14;;;;;;;4.50;2.10;;;12.10;99.90;;;;;;4994090;28;20061;-63
2022/05/25 07:09:41;;;;;;;5.30;2.30;;;12.20;99.90;;;;;;4992823;28;20042;-63
2022/05/25 07:12:08;;;;;;;5.60;2.08;;;12.30;99.90;;;;;;4993564;28;20514;-63
2022/05/25 07:14:35;;;;;;;;;;;12.40;99.90;;;;;;4994437;28;20084;-63
2022/05/25 07:17:03;;;;;;;4.88;1.88;;;12.50;99.90;;;;;;4993908;28;19926;-63
2022/05/25 07:19:30;;;;;;;4.60;1.77;;;12.60;99.90;;;;;;4990203;28;20039;-63
2022/05/25 07:21:57;;;;;;;3.03;1.80;;;12.70;99.90;;;;;;4993454;28;20042;-63
2022/05/25 07:24:24;;;;;;;4.00;1.95;;;12.80;99.90;;;;;;4993923;28;20038;-63
2022/05/25 07:26:51;;;;;;;11.23;2.70;;;13.00;99.90;;;;;;4994870;28;20593;-63
2022/05/25 07:29:18;;;;;;;2.85;1.90;;;13.00;99.90;;;;;;4976026;28;20050;-63
2022/05/25 07:31:51;;;;;;;3.15;1.50;;;13.10;99.90;;;;;;4993270;28;20046;-63
2022/05/25 07:34:22;;;;;;;2.90;1.80;;;13.20;99.90;;;;;;4993955;28;20125;-63
2022/05/25 07:37:12;;;;;;;1.98;1.63;;;13.20;99.90;;;;;;4986572;28;20050;-63
2022/05/25 07:40:05;;;;;;;7.45;1.80;;;13.20;99.90;;;;;;4975230;28;20530;-63
2022/05/25 07:42:32;;;;;;;4.68;2.08;;;13.10;99.90;;;;;;4993473;28;20047;-63
2022/05/25 07:45:01;;;;;;;8.68;2.38;;;13.10;99.90;;;;;;4989888;28;20035;-63
2022/05/25 07:47:31;;;;;;;4.18;2.65;;;13.00;99.90;;;;;;4989468;28;20038;-63
2022/05/25 07:49:58;;;;;;;4.63;2.28;;;13.00;99.90;;;;;;4972266;28;20437;-63
2022/05/25 07:52:28;;;;;;;4.22;2.33;;;13.00;99.90;;;;;;4973976;28;20525;-63
2022/05/25 07:54:56;;;;;;;5.32;2.58;;;13.00;99.90;;;;;;4977037;28;20042;-63
2022/05/25 07:57:22;;;;;;;4.65;2.47;;;13.10;99.90;;;;;;4986501;28;20046;-63
2022/05/25 07:59:49;;;;;;;4.85;2.30;;;13.10;99.90;;;;;;5005159;28;20466;-63
2022/05/25 08:07:57;;;;;;;4.30;2.08;;;13.50;99.90;;;;;;4993080;28;20053;-63
2022/05/25 08:10:25;;;;;;;3.78;2.35;;;13.90;99.90;;;;;;4992602;28;20050;-63
2022/05/25 08:12:55;;;;;;;6.68;2.40;;;14.10;99.90;;;;;;4989751;28;20050;-63
2022/05/25 08:15:23;;;;;;;4.35;2.30;;;14.20;99.90;;;;;;4992588;28;20050;-63
2022/05/25 08:17:51;;;;;;;3.90;2.25;;;14.10;99.90;;;;;;4992880;28;20053;-63
2022/05/25 08:20:19;;;;;;;2.63;1.90;;;14.10;99.90;;;;;;4992423;28;20054;-63
2022/05/25 08:22:46;;;;;;;2.42;1.73;;;14.10;99.90;;;;;;4989169;28;20050;-63
2022/05/25 08:25:15;;;;;;;4.57;1.60;;;14.10;99.90;;;;;;4992275;28;20074;-63
2022/05/25 08:27:42;;;;;;;4.80;1.45;;;14.20;99.90;;;;;;4992885;28;20488;-63
2022/05/25 08:30:13;;;;;;;7.82;1.88;;;14.10;99.90;;;;;;4992108;28;20049;-63
2022/05/25 08:32:40;;;;;;;2.90;1.90;;;14.30;99.90;;;;;;4990546;28;20045;-63
2022/05/25 08:35:07;;;;;;;3.55;1.55;;;14.40;99.90;;;;;;4992548;28;20050;-63
2022/05/25 08:37:35;;;;;;;1.83;1.60;;;14.60;99.90;;;;;;4992553;28;20046;-63
2022/05/25 08:40:03;;;;;;;2.83;1.77;;;14.70;99.90;;;;;;4987243;28;20399;-63
2022/05/25 08:42:34;;;;;;;3.33;1.55;;;14.70;99.90;;;;;;4992256;28;20051;-63
2022/05/25 08:45:01;;;;;;;2.58;1.40;;;14.60;99.90;;;;;;4992317;28;20050;-63
2022/05/25 08:47:28;;;;;;;5.38;1.73;;;14.60;99.90;;;;;;4984888;28;20546;-63
2022/05/25 08:49:55;;;;;;;3.90;1.80;;;14.50;99.90;;;;;;4991437;28;20049;-63
2022/05/25 08:52:30;;;;;;;2.78;1.67;;;14.30;99.90;;;;;;4991874;28;20049;-63
2022/05/25 08:55:04;;;;;;;3.08;1.50;;;14.00;99.90;;;;;;4992358;28;20102;-63
2022/05/25 08:57:36;;;;;;;3.00;1.55;;;13.80;99.90;;;;;;4990997;28;20042;-63
2022/05/25 09:00:09;;;;;;;2.30;1.70;;;13.60;99.90;;;;;;4991778;28;20050;-63
2022/05/25 09:02:45;;;;;;;4.63;1.60;;;13.50;99.90;;;;;;4992073;28;20042;-63
2022/05/25 09:05:34;;;;;;;5.97;2.58;;;13.30;99.90;;;;;;4992019;28;20057;-63
2022/05/25 09:08:21;;;;;;;4.07;1.75;;;13.20;99.90;;;;;;4990793;28;20044;-63
2022/05/25 09:11:03;;;;;;;5.00;2.60;;;13.10;99.90;;;;;;4991740;28;20526;-63
2022/05/25 09:13:39;;;;;;;5.57;2.60;;;13.00;99.90;;;;;;4992045;28;20054;-63
2022/05/25 09:16:17;;;;;;;8.32;3.50;;;13.00;99.90;;;;;;4985781;28;20054;-63
2022/05/25 09:18:55;;;;;;;7.95;2.88;;;13.00;99.90;;;;;;4991260;28;20099;-63
2022/05/25 09:21:25;;;;;;;8.15;3.08;;;13.10;99.90;;;;;;4990736;28;20058;-63
2022/05/25 09:23:55;;;;;;;7.60;3.25;;;13.30;99.90;;;;;;4990468;28;20499;-63
2022/05/25 09:26:22;;;;;;;5.45;3.30;;;13.50;99.90;;;;;;4986382;28;20419;-63
2022/05/25 09:28:54;;;;;;;6.00;3.20;;;13.70;99.90;;;;;;4991421;28;20042;-63
2022/05/25 09:31:27;;;;;;;5.75;2.28;;;13.90;99.90;;;;;;4990777;28;20038;-63
2022/05/25 09:34:03;;;;;;;2.47;1.58;;;14.00;99.90;;;;;;4988240;28;20057;-63
2022/05/25 09:36:38;;;;;;;3.72;1.73;;;14.00;99.90;;;;;;4987296;28;20046;-63
2022/05/25 09:39:31;;;;;;;2.92;1.50;;;14.00;99.90;;;;;;4972044;28;20046;-63
2022/05/25 09:41:59;;;;;;;3.55;1.45;;;14.00;99.90;;;;;;4971175;28;20510;-63
2022/05/25 09:45:04;;;;;;;3.03;1.85;;;14.00;99.90;;;;;;4978159;28;20406;-61
2022/05/25 09:48:24;;;;;;;3.08;1.65;;;14.00;99.90;;;;;;4970093;28;20438;-61
2022/05/25 09:51:04;;;;;;;5.70;2.00;;;14.00;99.90;;;;;;4990453;28;20047;-63
2022/05/25 09:53:52;;;;;;;2.83;1.95;;;14.00;99.90;;;;;;4984674;28;20505;-63
2022/05/25 09:56:30;;;;;;;6.47;2.85;;;13.90;99.90;;;;;;4981115;28;20047;-63
2022/05/25 09:58:59;;;;;;;;;;;13.90;99.90;;;;;;4986333;28;20534;-63
2022/05/25 10:01:33;;;;;;;6.72;2.22;;;14.00;99.90;;;;;;5001691;28;19929;-63
2022/05/25 10:04:01;;;;;;;3.42;1.90;;;14.00;99.90;;;;;;4986498;28;20043;-63
2022/05/25 10:06:31;;;;;;;2.28;2.08;;;14.00;99.90;;;;;;4993919;28;20110;-63
2022/05/25 10:09:26;;;;;;;2.28;1.83;;;14.00;99.90;;;;;;4993983;28;20487;-62
2022/05/25 10:12:16;;;;;;;2.38;1.55;;;14.10;99.90;;;;;;4987530;28;20039;-63
2022/05/25 10:15:13;;;;;;;3.85;1.45;;;14.00;99.90;;;;;;4994103;28;20410;-63
2022/05/25 10:17:43;;;;;;;3.83;1.20;;;14.10;99.90;;;;;;5024427;23;20049;-64
2022/05/25 10:20:26;;;;;;;1.40;1.23;;;14.20;99.90;;;;;;5013103;28;20063;-65
2022/05/25 10:23:19;;;;;;;2.90;1.58;;;14.10;99.90;;;;;;5029424;28;20053;-65
2022/05/25 10:25:49;;;;;;;3.83;2.22;;;14.10;99.90;;;;;;4994018;28;20054;-65
2022/05/25 10:28:24;;;;;;;3.60;2.28;;;14.10;99.90;;;;;;4975169;28;20522;-65
2022/05/25 10:37:08;;;;;;;2.08;1.65;;;14.30;99.90;;;;;;5014137;28;20060;-65
2022/05/25 10:39:40;;;;;;;1.95;1.50;;;14.30;99.90;;;;;;4999781;28;20049;-65
2022/05/25 10:42:10;;;;;;;1.75;1.33;;;14.40;99.90;;;;;;5007225;28;20457;-65
2022/05/25 10:44:55;;;;;;;1.48;1.30;;;14.60;99.90;;;;;;5014070;28;20046;-65
2022/05/25 10:47:47;;;;;;;1.55;1.42;;;15.00;99.90;;;;;;5004876;28;20042;-65
2022/05/25 10:50:41;;;;;;;3.17;1.40;;;15.40;99.90;;;;;;4988298;28;20563;-65
2022/05/25 10:53:41;;;;;;;2.45;1.35;;;15.80;99.90;;;;;;4994435;28;20408;-65
2022/05/25 10:56:31;;;;;;;1.42;1.20;;;16.20;99.90;;;;;;4993042;28;20530;-66
2022/05/25 10:59:23;;;;;;;2.25;1.48;;;16.50;99.90;;;;;;4986050;28;20062;-66
2022/05/25 11:02:05;;;;;;;2.17;1.25;;;16.50;99.90;;;;;;4993903;28;20042;-66
2022/05/25 11:04:52;;;;;;;4.93;1.48;;;16.40;99.90;;;;;;4993416;28;20049;-66
2022/05/25 11:07:34;;;;;;;4.60;1.23;;;16.70;99.90;;;;;;4988907;28;20042;-66
2022/05/25 11:10:15;;;;;;;3.13;0.93;;;17.00;99.90;;;;;;4994059;28;20470;-66
2022/05/25 11:13:20;;;;;;;0.98;0.98;;;17.30;99.90;;;;;;4994170;28;20042;-66
2022/05/25 11:16:22;;;;;;;7.65;1.30;;;17.60;99.90;;;;;;4993858;28;20046;-66
2022/05/25 11:18:58;;;;;;;1.73;1.10;;;17.90;99.90;;;;;;5013515;28;20060;-66
2022/05/25 11:21:39;;;;;;;1.77;0.80;;;18.20;99.90;;;;;;5013081;28;20049;-66
2022/05/25 11:24:05;;;;;;;1.55;0.98;;;18.40;99.90;;;;;;4995973;28;20407;-64
2022/05/25 11:26:56;;;;;;;3.78;1.20;;;18.40;99.90;;;;;;5009847;28;20121;-66
2022/05/25 11:29:44;;;;;;;2.92;0.90;;;18.20;99.90;;;;;;4995755;28;20053;-65
2022/05/25 11:32:23;;;;;;;;;;;18.40;99.90;;;;;;5000150;28;20070;-65
2022/05/25 11:34:53;;;;;;;2.40;0.80;;;18.30;99.90;;;;;;5003939;28;19921;-67
2022/05/25 11:37:43;;;;;;;2.70;0.73;;;18.60;99.90;;;;;;5013267;28;20057;-67
2022/05/25 11:40:41;;;;;;;0.88;0.82;;;18.20;99.90;;;;;;5002927;28;20050;-64
2022/05/25 11:43:23;;;;;;;4.88;0.80;;;17.90;99.90;;;;;;4986621;28;20069;-65
2022/05/25 11:46:02;;;;;;;6.13;0.80;;;17.90;99.90;;;;;;4993469;28;20038;-66
2022/05/25 11:49:25;;;;;;;3.53;0.82;;;18.00;99.90;;;;;;4992168;28;20082;-67
2022/05/25 11:52:00;;;;;;;2.15;0.90;;;17.90;99.90;;;;;;5003414;28;20057;-66
2022/05/25 11:54:43;;;;;;;0.80;0.60;;;17.90;99.90;;;;;;5012945;28;20092;-67
2022/05/25 11:57:45;;;;;;;1.23;0.80;;;17.90;99.90;;;;;;5006130;28;20057;-64
2022/05/25 12:00:21;;;;;;;2.47;0.90;;;18.10;99.90;;;;;;4986785;28;20046;-67
2022/05/25 12:02:59;;;;;;;1.05;0.80;;;18.10;99.90;;;;;;4992909;28;20050;-66
2022/05/25 12:05:31;;;;;;;1.23;0.68;;;18.20;99.90;;;;;;4993167;28;20050;-67
2022/05/25 12:08:17;;;;;;;1.95;0.80;;;18.20;99.90;;;;;;4991848;28;20042;-64
2022/05/25 12:10:45;;;;;;;0.70;0.65;;;18.20;99.90;;;;;;5010260;28;20092;-66
2022/05/25 12:13:47;;;;;;;0.68;0.55;;;18.20;99.90;;;;;;5012590;28;20494;-67
2022/05/25 12:16:32;;;;;;;2.03;0.70;;;18.20;99.90;;;;;;4999562;28;20110;-66
2022/05/25 12:19:10;;;;;;;0.95;0.63;;;18.50;99.90;;;;;;4985066;28;20038;-66
2022/05/25 12:21:40;;;;;;;;;;;18.50;99.90;;;;;;4992743;28;20054;-64
2022/05/25 12:24:09;;;;;;;1.38;0.70;;;18.50;99.90;;;;;;4991301;28;19930;-66
2022/05/25 12:26:38;;;;;;;2.08;0.60;;;18.70;99.90;;;;;;5008757;28;20052;-64
2022/05/25 12:29:14;;;;;;;2.78;0.60;;;18.70;99.90;;;;;;5012038;28;20037;-67
2022/05/25 12:31:46;;;;;;;2.63;0.70;;;18.60;99.90;;;;;;5004556;28;20487;-66
2022/05/25 12:34:16;;;;;;;1.40;0.60;;;18.40;99.90;;;;;;4997936;28;20441;-66
2022/05/25 12:36:44;;;;;;;2.78;0.70;;;18.40;99.90;;;;;;5012118;28;20053;-66
2022/05/25 12:39:11;;;;;;;0.47;0.40;;;18.50;99.90;;;;;;5012117;28;20053;-64
2022/05/25 12:41:39;;;;;;;2.00;0.50;;;18.50;99.90;;;;;;4993327;28;20046;-66
2022/05/25 12:49:47;;;;;;;2.78;0.70;;;19.00;99.90;;;;;;4993213;28;20390;-66
2022/05/25 12:52:27;;;;;;;0.85;0.50;;;19.20;99.90;;;;;;5011951;28;20042;-66
2022/05/25 12:55:01;;;;;;;13.98;1.30;;;19.70;99.90;;;;;;4994264;28;20117;-64
2022/05/25 12:57:52;;;;;;;1.27;0.50;;;20.00;99.90;;;;;;5004182;28;20081;-64
2022/05/25 13:00:30;;;;;;;1.65;0.80;;;19.70;99.90;;;;;;4986504;28;20042;-64
2022/05/25 13:03:19;;;;;;;0.70;0.50;;;19.50;99.90;;;;;;4992289;28;20491;-66
2022/05/25 13:05:54;;;;;;;1.05;0.70;;;19.10;99.90;;;;;;4991960;28;20065;-66
2022/05/25 13:08:51;;;;;;;1.17;0.60;;;18.90;99.90;;;;;;4983894;28;20070;-65
2022/05/25 13:11:30;;;;;;;0.73;0.47;;;18.90;99.90;;;;;;4986537;28;20057;-64
2022/05/25 13:14:01;;;;;;;1.17;0.30;;;18.80;99.90;;;;;;4991906;28;20050;-66
2022/05/25 13:16:40;;;;;;;0.30;0.30;;;18.60;99.90;;;;;;4990729;28;20045;-64
2022/05/25 13:19:16;;;;;;;2.53;0.50;;;18.40;99.90;;;;;;4985108;28;20045;-66
2022/05/25 13:22:08;;;;;;;0.75;0.47;;;18.20;99.90;;;;;;4991497;28;20050;-64
2022/05/25 13:25:03;;;;;;;3.17;0.50;;;18.20;99.90;;;;;;4990983;28;20045;-66
2022/05/25 13:28:13;;;;;;;0.93;0.40;;;18.10;99.90;;;;;;4988268;28;20046;-66
2022/05/25 13:30:40;;;;;;;1.27;0.85;;;18.10;99.90;;;;;;4972205;28;20490;-66
2022/05/25 13:33:47;;;;;;;1.70;0.52;;;18.20;99.90;;;;;;4972349;28;20106;-64
2022/05/25 13:36:21;;;;;;;1.02;0.50;;;18.10;99.90;;;;;;4979707;28;20066;-65
2022/05/25 13:39:00;;;;;;;2.05;0.52;;;18.00;99.90;;;;;;5013244;28;20398;-64
2022/05/25 13:41:33;;;;;;;2.28;0.40;;;17.90;99.90;;;;;;5013570;28;20107;-64
2022/05/25 13:43:59;;;;;;;0.85;0.43;;;18.00;99.90;;;;;;5003566;28;20054;-64
2022/05/25 13:46:34;;;;;;;1.20;0.40;;;18.00;99.90;;;;;;4995671;28;20042;-66
2022/05/25 13:49:04;;;;;;;1.60;0.73;;;18.20;99.90;;;;;;4995605;28;20043;-64
2022/05/25 13:51:30;;;;;;;2.90;0.70;;;18.50;99.90;;;;;;4993720;28;20058;-64